createdAt,value
2016-11-11T00:00:06.918Z,23.88
2016-11-11T00:01:20.519Z,23.79
2016-11-11T00:02:34.108Z,23.85
2016-11-11T00:03:47.778Z,23.79
2016-11-11T00:05:01.399Z,23.87
2016-11-11T00:06:14.507Z,23.78
2016-11-11T00:07:28.217Z,23.68
2016-11-11T00:08:41.576Z,23.66
2016-11-11T00:09:55.306Z,23.58
2016-11-11T00:11:09.298Z,23.57
2016-11-11T00:12:22.975Z,23.57
2016-11-11T00:13:36.654Z,23.63
2016-11-11T00:14:50.292Z,23.66
2016-11-11T00:16:03.376Z,23.69
2016-11-11T00:17:16.266Z,23.69
2016-11-11T00:18:29.804Z,23.57
2016-11-11T00:19:43.716Z,23.65
2016-11-11T00:20:57.161Z,23.63
2016-11-11T00:22:10.289Z,23.55
2016-11-11T00:23:23.446Z,23.51
2016-11-11T00:24:37.075Z,23.47
2016-11-11T00:25:50.107Z,23.51
2016-11-11T00:27:03.744Z,23.6
2016-11-11T00:28:16.892Z,23.46
2016-11-11T00:29:29.726Z,23.4
2016-11-11T00:30:42.212Z,23.48
2016-11-11T00:31:55.269Z,23.43
2016-11-11T00:33:09.391Z,23.23
2016-11-11T00:34:23.040Z,23.32
2016-11-11T00:35:36.298Z,23.33
2016-11-11T00:36:48.833Z,23.25
2016-11-11T00:38:02.440Z,23.19
2016-11-11T00:39:16.110Z,23.15
2016-11-11T00:40:29.703Z,23.13
2016-11-11T00:41:43.322Z,23.17
2016-11-11T00:42:56.992Z,23.07
2016-11-11T00:44:10.593Z,23.1
2016-11-11T00:45:24.280Z,23.13
2016-11-11T00:46:37.363Z,23
2016-11-11T00:47:50.984Z,23.01
2016-11-11T00:49:04.666Z,23.02
2016-11-11T00:50:18.354Z,22.98
2016-11-11T00:51:31.955Z,22.86
2016-11-11T00:52:45.629Z,22.86
2016-11-11T00:53:59.248Z,22.83
2016-11-11T00:55:12.283Z,22.8
2016-11-11T00:56:25.372Z,22.79
2016-11-11T00:57:39.288Z,22.61
2016-11-11T00:58:52.897Z,22.73
2016-11-11T01:00:06.514Z,22.7
2016-11-11T01:01:20.137Z,22.62
2016-11-11T01:02:33.236Z,22.62
2016-11-11T01:03:46.828Z,22.67
2016-11-11T01:04:59.813Z,22.65
2016-11-11T01:06:12.252Z,22.64
2016-11-11T01:07:25.894Z,22.62
2016-11-11T01:08:39.283Z,22.67
2016-11-11T01:09:52.887Z,22.61
2016-11-11T01:11:06.484Z,22.61
2016-11-11T01:12:19.575Z,22.62
2016-11-11T01:13:33.145Z,22.51
2016-11-11T01:14:46.439Z,22.62
2016-11-11T01:16:00.059Z,22.47
2016-11-11T01:17:13.489Z,22.55
2016-11-11T01:18:27.139Z,22.61
2016-11-11T01:19:40.767Z,22.51
2016-11-11T01:20:54.350Z,22.55
2016-11-11T01:22:08.016Z,22.47
2016-11-11T01:23:21.650Z,22.6
2016-11-11T01:24:34.768Z,22.61
2016-11-11T01:25:47.943Z,22.67
2016-11-11T01:27:01.111Z,22.65
2016-11-11T01:28:14.238Z,22.58
2016-11-11T01:29:27.799Z,22.61
2016-11-11T01:30:41.351Z,22.61
2016-11-11T01:31:53.971Z,22.61
2016-11-11T01:33:07.564Z,22.54
2016-11-11T01:34:21.164Z,22.61
2016-11-11T01:35:34.840Z,22.61
2016-11-11T01:36:47.942Z,22.62
2016-11-11T01:38:01.020Z,22.61
2016-11-11T01:39:14.135Z,22.72
2016-11-11T01:40:26.632Z,22.7
2016-11-11T01:41:39.190Z,22.61
2016-11-11T01:42:52.814Z,22.61
2016-11-11T01:44:06.451Z,22.61
2016-11-11T01:45:20.109Z,22.61
2016-11-11T01:46:33.715Z,22.49
2016-11-11T01:47:46.794Z,22.47
2016-11-11T01:49:00.388Z,22.54
2016-11-11T01:50:13.406Z,22.49
2016-11-11T01:51:26.532Z,22.52
2016-11-11T01:52:40.488Z,22.52
2016-11-11T01:53:54.098Z,22.49
2016-11-11T01:55:07.741Z,22.54
2016-11-11T01:56:21.291Z,22.51
2016-11-11T01:57:33.797Z,22.43
2016-11-11T01:58:47.338Z,22.43
2016-11-11T02:00:01.009Z,22.51
2016-11-11T02:01:14.065Z,22.43
2016-11-11T02:02:27.642Z,22.49
2016-11-11T02:03:41.264Z,22.42
2016-11-11T02:04:54.099Z,22.37
2016-11-11T02:06:07.796Z,22.28
2016-11-11T02:07:20.922Z,22.51
2016-11-11T02:08:34.535Z,22.47
2016-11-11T02:09:47.576Z,22.37
2016-11-11T02:11:00.698Z,22.4
2016-11-11T02:12:14.276Z,22.46
2016-11-11T02:13:27.381Z,22.46
2016-11-11T02:14:40.484Z,22.46
2016-11-11T02:15:53.532Z,22.54
2016-11-11T02:17:06.526Z,22.6
2016-11-11T02:18:20.143Z,22.52
2016-11-11T02:19:33.465Z,22.43
2016-11-11T02:20:47.027Z,22.45
2016-11-11T02:22:00.697Z,22.45
2016-11-11T02:23:14.323Z,22.46
2016-11-11T02:24:27.466Z,22.52
2016-11-11T02:25:41.090Z,22.42
2016-11-11T02:26:54.227Z,22.46
2016-11-11T02:28:07.890Z,22.35
2016-11-11T02:29:21.448Z,22.35
2016-11-11T02:30:35.081Z,22.37
2016-11-11T02:31:48.098Z,22.39
2016-11-11T02:33:01.779Z,22.31
2016-11-11T02:34:15.429Z,22.28
2016-11-11T02:35:29.047Z,22.42
2016-11-11T02:36:42.715Z,22.35
2016-11-11T02:37:55.787Z,22.43
2016-11-11T02:39:09.342Z,22.51
2016-11-11T02:40:22.907Z,22.45
2016-11-11T02:41:36.611Z,22.57
2016-11-11T02:42:50.301Z,22.39
2016-11-11T02:44:03.944Z,22.42
2016-11-11T02:45:17.452Z,22.37
2016-11-11T02:46:31.149Z,22.24
2016-11-11T02:47:43.688Z,22.43
2016-11-11T02:48:57.290Z,22.37
2016-11-11T02:50:10.583Z,22.37
2016-11-11T02:51:24.224Z,22.35
2016-11-11T02:52:37.847Z,22.35
2016-11-11T02:53:51.551Z,22.35
2016-11-11T02:55:05.199Z,22.3
2016-11-11T02:56:18.325Z,22.28
2016-11-11T02:57:30.866Z,22.25
2016-11-11T02:58:44.558Z,22.27
2016-11-11T02:59:57.363Z,22.39
2016-11-11T03:01:10.452Z,22.4
2016-11-11T03:02:24.104Z,22.4
2016-11-11T03:03:37.790Z,22.46
2016-11-11T03:04:51.028Z,22.47
2016-11-11T03:06:04.649Z,22.51
2016-11-11T03:07:17.272Z,22.46
2016-11-11T03:08:30.329Z,22.52
2016-11-11T03:09:43.912Z,22.52
2016-11-11T03:10:57.567Z,22.49
2016-11-11T03:12:10.207Z,22.47
2016-11-11T03:13:23.866Z,22.4
2016-11-11T03:14:37.489Z,22.42
2016-11-11T03:15:51.061Z,22.33
2016-11-11T03:17:04.457Z,22.36
2016-11-11T03:18:17.580Z,22.4
2016-11-11T03:19:31.191Z,22.37
2016-11-11T03:20:44.845Z,22.37
2016-11-11T03:21:57.903Z,22.42
2016-11-11T03:23:11.527Z,22.42
2016-11-11T03:24:24.808Z,22.35
2016-11-11T03:25:37.846Z,22.39
2016-11-11T03:26:51.412Z,22.3
2016-11-11T03:28:04.976Z,22.36
2016-11-11T03:29:18.584Z,22.35
2016-11-11T03:30:31.980Z,22.35
2016-11-11T03:32:16.720Z,22.39
2016-11-11T03:33:29.850Z,22.4
2016-11-11T03:34:43.143Z,22.42
2016-11-11T03:35:56.840Z,22.36
2016-11-11T03:37:10.220Z,22.33
2016-11-11T03:38:23.887Z,22.3
2016-11-11T03:39:37.513Z,22.21
2016-11-11T03:40:51.165Z,22.36
2016-11-11T03:42:04.786Z,22.33
2016-11-11T03:43:17.307Z,22.37
2016-11-11T03:44:30.923Z,22.4
2016-11-11T03:45:44.029Z,22.37
2016-11-11T03:46:57.566Z,22.39
2016-11-11T03:48:10.656Z,22.36
2016-11-11T03:49:24.363Z,22.36
2016-11-11T03:50:37.411Z,22.42
2016-11-11T03:51:50.588Z,22.37
2016-11-11T03:53:04.455Z,22.4
2016-11-11T03:54:18.113Z,22.39
2016-11-11T03:55:31.871Z,22.33
2016-11-11T03:56:44.391Z,22.37
2016-11-11T03:57:57.219Z,22.33
2016-11-11T03:59:10.299Z,22.39
2016-11-11T04:00:23.917Z,22.37
2016-11-11T04:01:36.990Z,22.35
2016-11-11T04:02:50.520Z,22.25
2016-11-11T04:04:03.556Z,22.27
2016-11-11T04:05:48.289Z,22.27
2016-11-11T04:07:00.876Z,22.24
2016-11-11T04:08:14.423Z,22.12
2016-11-11T04:09:26.911Z,22.06
2016-11-11T04:10:40.553Z,22.06
2016-11-11T04:11:54.254Z,21.98
2016-11-11T04:13:07.300Z,22
2016-11-11T04:14:21.070Z,21.99
2016-11-11T04:15:34.128Z,22.1
2016-11-11T04:16:47.776Z,22.05
2016-11-11T04:18:01.405Z,22.18
2016-11-11T04:19:14.949Z,22.2
2016-11-11T04:20:28.511Z,22.15
2016-11-11T04:21:42.354Z,22.14
2016-11-11T04:22:55.892Z,22.05
2016-11-11T04:24:09.494Z,22
2016-11-11T04:25:22.544Z,21.91
2016-11-11T04:26:36.222Z,21.92
2016-11-11T04:27:49.259Z,21.9
2016-11-11T04:29:02.372Z,21.88
2016-11-11T04:30:16.002Z,21.92
2016-11-11T04:31:29.391Z,21.94
2016-11-11T04:32:42.442Z,21.9
2016-11-11T04:33:56.041Z,21.96
2016-11-11T04:35:09.080Z,22.09
2016-11-11T04:36:22.775Z,22.02
2016-11-11T04:37:36.221Z,22.03
2016-11-11T04:38:49.201Z,22.03
2016-11-11T04:40:02.309Z,22.02
2016-11-11T04:41:16.451Z,22.05
2016-11-11T04:42:30.037Z,22.07
2016-11-11T04:43:43.608Z,22.15
2016-11-11T04:44:56.218Z,22.14
2016-11-11T04:46:09.321Z,21.99
2016-11-11T04:47:22.982Z,22.12
2016-11-11T04:48:36.614Z,22.09
2016-11-11T04:49:49.481Z,22.06
2016-11-11T04:51:02.583Z,21.99
2016-11-11T04:52:16.163Z,22.07
2016-11-11T04:53:29.780Z,21.94
2016-11-11T04:54:42.644Z,22.05
2016-11-11T04:55:56.310Z,21.99
2016-11-11T04:57:39.932Z,22.02
2016-11-11T04:58:53.610Z,22
2016-11-11T05:00:07.235Z,22.05
2016-11-11T05:01:20.340Z,22.02
2016-11-11T05:02:33.898Z,21.98
2016-11-11T05:03:47.007Z,22.06
2016-11-11T05:04:59.544Z,22.17
2016-11-11T05:06:13.089Z,22.17
2016-11-11T05:07:25.821Z,22.14
2016-11-11T05:08:38.918Z,22.14
2016-11-11T05:09:52.003Z,22.18
2016-11-11T05:11:05.665Z,22.1
2016-11-11T05:12:18.832Z,22.09
2016-11-11T05:13:32.484Z,22
2016-11-11T05:14:45.212Z,21.98
2016-11-11T05:15:58.332Z,21.9
2016-11-11T05:17:11.167Z,21.94
2016-11-11T05:18:24.766Z,21.91
2016-11-11T05:19:38.412Z,21.94
2016-11-11T05:20:51.967Z,21.92
2016-11-11T05:22:36.282Z,21.92
2016-11-11T05:23:48.860Z,21.86
2016-11-11T05:25:01.950Z,21.88
2016-11-11T05:26:15.548Z,21.92
2016-11-11T05:27:28.671Z,21.91
2016-11-11T05:28:41.769Z,21.91
2016-11-11T05:29:55.292Z,21.9
2016-11-11T05:31:08.908Z,21.88
2016-11-11T05:32:21.730Z,21.94
2016-11-11T05:33:35.432Z,21.9
2016-11-11T05:34:49.056Z,21.91
2016-11-11T05:36:02.107Z,21.88
2016-11-11T05:37:15.470Z,21.9
2016-11-11T05:38:29.122Z,21.94
2016-11-11T05:39:42.547Z,21.98
2016-11-11T05:40:56.204Z,21.92
2016-11-11T05:42:40.520Z,21.91
2016-11-11T05:43:53.099Z,21.83
2016-11-11T05:45:06.474Z,21.92
2016-11-11T05:46:20.015Z,21.82
2016-11-11T05:47:33.239Z,21.83
2016-11-11T05:48:46.335Z,21.91
2016-11-11T05:49:59.939Z,21.91
2016-11-11T05:51:12.969Z,21.9
2016-11-11T05:52:57.604Z,21.91
2016-11-11T05:54:10.690Z,21.96
2016-11-11T05:55:24.307Z,21.91
2016-11-11T05:56:37.090Z,21.88
2016-11-11T05:57:50.760Z,21.91
2016-11-11T05:59:04.329Z,21.92
2016-11-11T06:00:17.943Z,21.98
2016-11-11T06:01:31.039Z,21.91
2016-11-11T06:02:44.415Z,21.91
2016-11-11T06:03:57.568Z,21.84
2016-11-11T06:05:11.237Z,21.92
2016-11-11T06:06:24.415Z,21.91
2016-11-11T06:07:38.084Z,21.83
2016-11-11T06:08:51.126Z,21.74
2016-11-11T06:10:04.738Z,21.71
2016-11-11T06:11:17.819Z,21.67
2016-11-11T06:12:30.910Z,21.68
2016-11-11T06:13:44.520Z,21.64
2016-11-11T06:14:58.117Z,21.75
2016-11-11T06:16:11.749Z,21.71
2016-11-11T06:17:25.347Z,21.68
2016-11-11T06:18:38.951Z,21.74
2016-11-11T06:19:52.530Z,21.71
2016-11-11T06:21:05.087Z,21.65
2016-11-11T06:22:18.708Z,21.69
2016-11-11T06:23:32.406Z,21.61
2016-11-11T06:24:46.058Z,21.58
2016-11-11T06:25:59.736Z,21.72
2016-11-11T06:27:13.763Z,21.67
2016-11-11T06:28:27.415Z,21.72
2016-11-11T06:29:40.483Z,21.65
2016-11-11T06:30:53.623Z,21.69
2016-11-11T06:32:06.687Z,21.8
2016-11-11T06:33:20.162Z,21.72
2016-11-11T06:34:33.814Z,21.83
2016-11-11T06:35:47.419Z,21.77
2016-11-11T06:37:02.213Z,21.83
2016-11-11T06:38:15.831Z,21.77
2016-11-11T06:39:28.917Z,21.88
2016-11-11T06:40:42.095Z,21.9
2016-11-11T06:41:55.659Z,21.82
2016-11-11T06:43:09.434Z,21.94
2016-11-11T06:44:21.961Z,21.84
2016-11-11T06:45:35.523Z,21.82
2016-11-11T06:46:49.205Z,21.75
2016-11-11T06:48:02.220Z,21.79
2016-11-11T06:49:15.910Z,21.67
2016-11-11T06:50:29.066Z,21.69
2016-11-11T06:51:42.062Z,21.75
2016-11-11T06:52:55.174Z,21.68
2016-11-11T06:54:08.774Z,21.83
2016-11-11T06:55:21.397Z,21.83
2016-11-11T06:56:34.933Z,21.8
2016-11-11T06:57:48.600Z,21.82
2016-11-11T06:59:01.665Z,21.83
2016-11-11T07:00:15.301Z,21.79
2016-11-11T07:01:28.099Z,21.79
2016-11-11T07:02:41.590Z,21.71
2016-11-11T07:03:54.687Z,21.74
2016-11-11T07:05:08.318Z,21.69
2016-11-11T07:06:20.818Z,21.68
2016-11-11T07:07:33.272Z,21.82
2016-11-11T07:08:46.824Z,21.74
2016-11-11T07:10:00.516Z,21.67
2016-11-11T07:11:14.086Z,21.69
2016-11-11T07:12:27.694Z,21.64
2016-11-11T07:13:40.780Z,21.72
2016-11-11T07:14:53.880Z,21.68
2016-11-11T07:16:06.927Z,21.68
2016-11-11T07:17:20.607Z,21.69
2016-11-11T07:18:34.236Z,21.68
2016-11-11T07:19:47.818Z,21.88
2016-11-11T07:21:00.827Z,21.9
2016-11-11T07:22:13.887Z,21.84
2016-11-11T07:25:11.723Z,21.92
2016-11-11T07:26:24.256Z,21.9
2016-11-11T07:27:37.815Z,21.92
2016-11-11T07:28:50.910Z,21.9
2016-11-11T07:30:04.546Z,21.91
2016-11-11T07:31:17.069Z,21.91
2016-11-11T07:32:30.124Z,21.9
2016-11-11T07:33:43.557Z,21.92
2016-11-11T07:34:56.664Z,21.88
2016-11-11T07:36:09.764Z,21.96
2016-11-11T07:37:23.471Z,21.9
2016-11-11T07:38:36.481Z,21.94
2016-11-11T07:39:50.131Z,21.91
2016-11-11T07:41:03.310Z,21.92
2016-11-11T07:42:16.968Z,21.94
2016-11-11T07:43:30.537Z,21.91
2016-11-11T07:44:44.157Z,21.84
2016-11-11T07:45:57.199Z,21.84
2016-11-11T07:47:10.834Z,21.86
2016-11-11T07:48:23.903Z,21.84
2016-11-11T07:49:37.522Z,21.86
2016-11-11T07:50:51.067Z,21.84
2016-11-11T07:52:04.408Z,21.88
2016-11-11T07:53:18.098Z,21.82
2016-11-11T07:54:31.669Z,21.69
2016-11-11T07:55:44.857Z,21.72
2016-11-11T07:56:57.961Z,21.79
2016-11-11T07:58:11.063Z,21.71
2016-11-11T07:59:24.721Z,21.64
2016-11-11T08:00:38.229Z,21.53
2016-11-11T08:01:51.839Z,21.43
2016-11-11T08:03:05.508Z,21.43
2016-11-11T08:04:19.122Z,21.28
2016-11-11T08:05:32.778Z,21.14
2016-11-11T08:06:45.841Z,21.13
2016-11-11T08:07:58.905Z,21.16
2016-11-11T08:09:11.975Z,21.09
2016-11-11T08:10:25.593Z,21.1
2016-11-11T08:11:39.513Z,21.1
2016-11-11T08:12:53.170Z,21.1
2016-11-11T08:14:06.376Z,21.1
2016-11-11T08:15:19.883Z,21.06
2016-11-11T08:16:33.544Z,21.1
2016-11-11T08:17:47.457Z,21.04
2016-11-11T08:19:01.031Z,20.99
2016-11-11T08:20:14.374Z,20.95
2016-11-11T08:21:27.926Z,21.07
2016-11-11T08:22:41.268Z,21.04
2016-11-11T08:23:54.859Z,21.1
2016-11-11T08:25:08.479Z,21.06
2016-11-11T08:26:21.519Z,21.06
2016-11-11T08:27:35.148Z,20.95
2016-11-11T08:28:48.798Z,20.92
2016-11-11T08:30:02.359Z,20.97
2016-11-11T08:31:14.932Z,20.95
2016-11-11T08:32:28.577Z,20.94
2016-11-11T08:33:42.342Z,20.95
2016-11-11T08:34:55.929Z,21.03
2016-11-11T08:36:09.547Z,21.03
2016-11-11T08:37:23.202Z,20.98
2016-11-11T08:38:35.793Z,21.09
2016-11-11T08:39:49.501Z,20.98
2016-11-11T08:41:02.858Z,20.98
2016-11-11T08:42:16.861Z,20.98
2016-11-11T08:43:29.385Z,21.14
2016-11-11T08:44:42.771Z,21.14
2016-11-11T08:45:56.383Z,21.17
2016-11-11T08:47:10.060Z,21.17
2016-11-11T08:48:23.306Z,21.21
2016-11-11T08:49:36.886Z,21.14
2016-11-11T08:50:50.543Z,21.14
2016-11-11T08:52:03.906Z,21.19
2016-11-11T08:53:17.465Z,21.16
2016-11-11T08:54:31.066Z,21.14
2016-11-11T08:55:44.684Z,21.17
2016-11-11T08:56:58.277Z,21.14
2016-11-11T08:58:11.365Z,21.13
2016-11-11T08:59:24.459Z,21.21
2016-11-11T09:00:38.113Z,21.21
2016-11-11T09:01:51.783Z,21.25
2016-11-11T09:03:05.397Z,21.19
2016-11-11T09:04:18.999Z,21.1
2016-11-11T09:05:32.560Z,21.16
2016-11-11T09:06:46.200Z,21.16
2016-11-11T09:08:13.822Z,21.19
2016-11-11T09:09:26.927Z,21.09
2016-11-11T09:10:40.599Z,21.16
2016-11-11T09:11:54.200Z,21.13
2016-11-11T09:13:07.788Z,21.22
2016-11-11T09:14:21.183Z,21.21
2016-11-11T09:15:34.729Z,21.28
2016-11-11T09:16:48.380Z,21.31
2016-11-11T09:18:01.991Z,21.21
2016-11-11T09:19:15.786Z,21.28
2016-11-11T09:20:29.398Z,21.27
2016-11-11T09:21:43.089Z,21.24
2016-11-11T09:22:56.655Z,21.28
2016-11-11T09:24:09.753Z,21.43
2016-11-11T09:25:23.732Z,21.4
2016-11-11T09:26:36.562Z,21.46
2016-11-11T09:27:50.187Z,21.44
2016-11-11T09:29:03.754Z,21.47
2016-11-11T09:30:48.347Z,21.49
2016-11-11T09:32:02.015Z,21.47
2016-11-11T09:33:15.636Z,21.52
2016-11-11T09:34:28.862Z,21.53
2016-11-11T09:35:42.735Z,21.49
2016-11-11T09:36:56.324Z,21.47
2016-11-11T09:38:09.895Z,21.47
2016-11-11T09:41:08.152Z,21.44
2016-11-11T09:42:21.783Z,21.44
2016-11-11T09:43:35.470Z,21.34
2016-11-11T09:44:49.102Z,21.44
2016-11-11T09:46:33.748Z,21.4
2016-11-11T09:47:47.362Z,21.29
2016-11-11T09:49:00.916Z,21.44
2016-11-11T09:50:14.516Z,21.5
2016-11-11T09:51:28.184Z,21.47
2016-11-11T09:52:41.225Z,21.53
2016-11-11T09:53:54.859Z,21.56
2016-11-11T09:55:08.588Z,21.67
2016-11-11T09:56:21.922Z,21.69
2016-11-11T09:57:35.486Z,21.77
2016-11-11T09:58:49.038Z,21.82
2016-11-11T10:00:02.707Z,21.96
2016-11-11T10:01:16.402Z,21.94
2016-11-11T10:02:30.026Z,21.98
2016-11-11T10:03:43.898Z,21.94
2016-11-11T10:04:57.077Z,21.88
2016-11-11T10:06:10.802Z,22.02
2016-11-11T10:07:24.384Z,22.03
2016-11-11T10:08:37.953Z,21.96
2016-11-11T10:09:51.596Z,21.92
2016-11-11T10:11:05.301Z,22.03
2016-11-11T10:12:18.920Z,22.02
2016-11-11T10:13:32.503Z,22.12
2016-11-11T10:14:46.163Z,22.17
2016-11-11T10:15:59.798Z,22.14
2016-11-11T10:17:13.905Z,22.1
2016-11-11T10:18:27.504Z,22.15
2016-11-11T10:19:41.174Z,22.22
2016-11-11T10:20:54.770Z,22.27
2016-11-11T10:22:08.480Z,22.22
2016-11-11T10:23:22.097Z,22.33
2016-11-11T10:24:35.619Z,22.36
2016-11-11T10:25:49.298Z,22.37
2016-11-11T10:27:03.007Z,22.35
2016-11-11T10:28:17.025Z,22.35
2016-11-11T10:29:30.335Z,22.39
2016-11-11T10:30:43.879Z,22.51
2016-11-11T10:31:57.447Z,22.54
2016-11-11T10:33:11.020Z,22.54
2016-11-11T10:34:24.570Z,22.47
2016-11-11T10:35:37.647Z,22.62
2016-11-11T10:36:50.674Z,22.6
2016-11-11T10:38:03.685Z,22.62
2016-11-11T10:39:16.465Z,22.68
2016-11-11T10:40:30.109Z,22.7
2016-11-11T10:41:43.903Z,22.7
2016-11-11T10:42:57.504Z,22.65
2016-11-11T10:44:10.826Z,22.73
2016-11-11T10:45:24.439Z,22.61
2016-11-11T10:46:38.082Z,22.58
2016-11-11T10:47:51.697Z,22.62
2016-11-11T10:49:05.269Z,22.68
2016-11-11T10:50:18.061Z,22.77
2016-11-11T10:51:31.699Z,22.75
2016-11-11T10:52:45.421Z,22.75
2016-11-11T10:53:59.029Z,22.83
2016-11-11T10:55:12.804Z,22.85
2016-11-11T10:56:26.439Z,22.88
2016-11-11T10:57:39.978Z,22.83
2016-11-11T10:58:53.549Z,22.95
2016-11-11T11:00:07.185Z,22.94
2016-11-11T11:01:20.786Z,23.01
2016-11-11T11:02:34.404Z,23.01
2016-11-11T11:03:48.032Z,23
2016-11-11T11:05:01.695Z,23.12
2016-11-11T11:06:15.257Z,23.05
2016-11-11T11:07:28.882Z,23.2
2016-11-11T11:08:42.770Z,23.23
2016-11-11T11:09:56.343Z,23.32
2016-11-11T11:11:09.977Z,23.28
2016-11-11T11:12:23.699Z,23.33
2016-11-11T11:13:37.180Z,23.42
2016-11-11T11:14:50.833Z,23.46
2016-11-11T11:16:04.417Z,23.48
2016-11-11T11:17:17.980Z,23.61
2016-11-11T11:18:31.601Z,23.58
2016-11-11T11:20:16.018Z,23.72
2016-11-11T11:21:29.638Z,23.78
2016-11-11T11:22:43.384Z,23.75
2016-11-11T11:23:56.976Z,23.78
2016-11-11T11:25:10.819Z,23.84
2016-11-11T11:26:24.787Z,23.88
2016-11-11T11:27:38.396Z,23.88
2016-11-11T11:28:51.969Z,23.85
2016-11-11T11:30:05.086Z,24.05
2016-11-11T11:31:18.752Z,24.06
2016-11-11T11:32:32.343Z,24.1
2016-11-11T11:33:45.901Z,24.08
2016-11-11T11:34:59.552Z,24.18
2016-11-11T11:36:13.182Z,24.27
2016-11-11T11:37:26.790Z,24.22
2016-11-11T11:38:40.380Z,24.39
2016-11-11T11:39:54.030Z,24.49
2016-11-11T11:41:07.728Z,24.43
2016-11-11T11:42:20.892Z,24.45
2016-11-11T11:43:34.485Z,24.4
2016-11-11T11:44:48.116Z,24.5
2016-11-11T11:46:01.709Z,24.58
2016-11-11T11:47:15.275Z,24.61
2016-11-11T11:48:28.362Z,24.6
2016-11-11T11:49:41.984Z,24.73
2016-11-11T11:50:55.547Z,24.78
2016-11-11T11:52:09.157Z,24.73
2016-11-11T11:53:22.744Z,24.88
2016-11-11T11:54:36.011Z,24.98
2016-11-11T11:55:49.335Z,25.06
2016-11-11T11:57:02.961Z,25.2
2016-11-11T11:58:17.050Z,25.17
2016-11-11T11:59:30.706Z,25.18
2016-11-11T12:00:44.011Z,25.25
2016-11-11T12:01:57.566Z,25.28
2016-11-11T12:03:11.191Z,25.24
2016-11-11T12:04:24.891Z,25.27
2016-11-11T12:05:37.996Z,25.24
2016-11-11T12:06:51.287Z,25.27
2016-11-11T12:08:04.902Z,25.36
2016-11-11T12:09:18.605Z,25.4
2016-11-11T12:10:32.222Z,25.4
2016-11-11T12:11:45.773Z,25.52
2016-11-11T12:12:59.421Z,25.47
2016-11-11T12:14:13.079Z,25.45
2016-11-11T12:15:26.655Z,25.58
2016-11-11T12:16:39.740Z,25.61
2016-11-11T12:17:53.383Z,25.64
2016-11-11T12:19:06.947Z,25.67
2016-11-11T12:20:20.628Z,25.69
2016-11-11T12:21:34.241Z,25.75
2016-11-11T12:22:47.847Z,25.8
2016-11-11T12:24:01.485Z,25.82
2016-11-11T12:25:15.051Z,25.82
2016-11-11T12:26:28.795Z,25.87
2016-11-11T12:29:27.594Z,25.95
2016-11-11T12:30:41.248Z,26.06
2016-11-11T12:31:54.844Z,26.05
2016-11-11T12:33:08.519Z,26.07
2016-11-11T12:34:22.090Z,26.07
2016-11-11T12:35:35.761Z,25.99
2016-11-11T12:36:49.455Z,26.1
2016-11-11T12:38:02.832Z,26.09
2016-11-11T12:39:16.499Z,26.2
2016-11-11T12:40:30.187Z,26.23
2016-11-11T12:41:43.967Z,26.23
2016-11-11T12:42:57.606Z,26.33
2016-11-11T12:44:10.940Z,26.43
2016-11-11T12:45:24.706Z,26.48
2016-11-11T12:46:38.338Z,26.5
2016-11-11T12:47:52.097Z,26.6
2016-11-11T12:49:05.841Z,26.69
2016-11-11T12:50:19.450Z,26.84
2016-11-11T12:51:32.785Z,26.95
2016-11-11T12:52:46.474Z,27.03
2016-11-11T12:54:00.161Z,27.24
2016-11-11T12:55:13.989Z,27.22
2016-11-11T12:56:27.093Z,27.31
2016-11-11T12:57:40.798Z,27.34
2016-11-11T12:58:54.364Z,27.44
2016-11-11T13:00:07.997Z,27.59
2016-11-11T13:01:21.588Z,27.6
2016-11-11T13:02:35.096Z,27.79
2016-11-11T13:03:48.727Z,27.81
2016-11-11T13:05:02.267Z,27.93
2016-11-11T13:06:15.916Z,28.14
2016-11-11T13:07:29.588Z,28.19
2016-11-11T13:08:43.177Z,28.18
2016-11-11T13:09:56.877Z,28.3
2016-11-11T13:11:10.309Z,28.44
2016-11-11T13:12:23.958Z,28.56
2016-11-11T13:13:37.537Z,28.56
2016-11-11T13:14:51.216Z,28.56
2016-11-11T13:16:04.894Z,28.66
2016-11-11T13:17:18.467Z,28.61
2016-11-11T13:18:32.054Z,28.59
2016-11-11T13:19:45.716Z,28.68
2016-11-11T13:20:59.315Z,28.74
2016-11-11T13:22:12.835Z,28.92
2016-11-11T13:23:26.488Z,29.09
2016-11-11T13:24:39.827Z,29.24
2016-11-11T13:25:53.520Z,29.16
2016-11-11T13:27:07.206Z,29.34
2016-11-11T13:28:20.875Z,29.6
2016-11-11T13:29:33.647Z,29.7
2016-11-11T13:30:47.286Z,29.65
2016-11-11T13:32:00.876Z,29.63
2016-11-11T13:33:14.566Z,29.61
2016-11-11T13:34:28.217Z,29.65
2016-11-11T13:35:41.854Z,29.63
2016-11-11T13:36:55.593Z,29.55
2016-11-11T13:38:09.756Z,29.61
2016-11-11T13:39:23.349Z,29.7
2016-11-11T13:40:36.994Z,29.83
2016-11-11T13:41:50.603Z,29.95
2016-11-11T13:43:04.291Z,29.87
2016-11-11T13:44:17.921Z,29.94
2016-11-11T13:45:31.542Z,30.1
2016-11-11T13:46:45.159Z,30.08
2016-11-11T13:47:58.762Z,30.19
2016-11-11T13:49:12.924Z,30.08
2016-11-11T13:50:26.554Z,29.95
2016-11-11T13:51:40.120Z,29.97
2016-11-11T13:52:53.722Z,29.85
2016-11-11T13:54:07.588Z,29.71
2016-11-11T13:55:21.278Z,29.65
2016-11-11T13:56:34.898Z,29.89
2016-11-11T13:57:48.419Z,30.22
2016-11-11T13:59:02.045Z,30.38
2016-11-11T14:00:15.735Z,30.6
2016-11-11T14:01:28.744Z,30.84
2016-11-11T14:02:42.265Z,30.89
2016-11-11T14:03:55.874Z,31.02
2016-11-11T14:05:09.690Z,30.82
2016-11-11T14:06:22.780Z,30.69
2016-11-11T14:07:36.608Z,30.7
2016-11-11T14:08:50.285Z,30.54
2016-11-11T14:10:03.868Z,30.69
2016-11-11T14:11:17.432Z,30.77
2016-11-11T14:12:31.035Z,30.97
2016-11-11T14:13:44.688Z,30.86
2016-11-11T14:14:58.226Z,30.76
2016-11-11T14:16:11.237Z,30.42
2016-11-11T14:17:24.884Z,30.46
2016-11-11T14:18:38.554Z,30.73
2016-11-11T14:19:51.674Z,31.16
2016-11-11T14:21:05.321Z,31.25
2016-11-11T14:22:18.925Z,31.54
2016-11-11T14:23:32.500Z,32.01
2016-11-11T14:24:46.139Z,32.26
2016-11-11T14:26:00.028Z,32.29
2016-11-11T14:27:13.993Z,32.88
2016-11-11T14:28:27.717Z,33.26
2016-11-11T14:29:41.311Z,33.32
2016-11-11T14:30:54.923Z,33.41
2016-11-11T14:32:08.570Z,33.94
2016-11-11T14:33:22.262Z,33.37
2016-11-11T14:34:35.927Z,34.05
2016-11-11T14:35:48.791Z,34.47
2016-11-11T14:37:02.430Z,34.78
2016-11-11T14:38:16.115Z,34.13
2016-11-11T14:39:29.707Z,33.51
2016-11-11T14:40:42.913Z,32.88
2016-11-11T14:41:56.502Z,32.59
2016-11-11T14:43:10.062Z,32.22
2016-11-11T14:44:23.651Z,32.5
2016-11-11T14:45:37.251Z,32.63
2016-11-11T14:46:50.847Z,32.48
2016-11-11T14:48:04.994Z,32.79
2016-11-11T14:49:18.667Z,33.09
2016-11-11T14:50:32.305Z,33.28
2016-11-11T14:51:45.923Z,33.59
2016-11-11T14:53:30.735Z,34.15
2016-11-11T14:54:44.118Z,34.5
2016-11-11T14:55:57.796Z,34.4
2016-11-11T14:57:11.506Z,34.12
2016-11-11T14:58:25.212Z,34.66
2016-11-11T14:59:38.784Z,35.29
2016-11-11T15:00:51.902Z,35.03
2016-11-11T15:02:05.536Z,35.4
2016-11-11T15:03:19.251Z,35.47
2016-11-11T15:04:32.359Z,35.25
2016-11-11T15:05:45.896Z,35.5
2016-11-11T15:06:59.518Z,35.59
2016-11-11T15:08:13.072Z,35.9
2016-11-11T15:09:26.702Z,35.66
2016-11-11T15:10:40.317Z,35.38
2016-11-11T15:11:53.931Z,35.07
2016-11-11T15:13:07.299Z,34.72
2016-11-11T15:14:20.697Z,34.52
2016-11-11T15:16:05.430Z,34.56
2016-11-11T15:17:19.051Z,34.88
2016-11-11T15:18:32.696Z,35.26
2016-11-11T15:19:46.341Z,35.02
2016-11-11T15:20:59.918Z,34.65
2016-11-11T15:22:13.518Z,34.8
2016-11-11T15:23:27.198Z,35.11
2016-11-11T15:24:40.678Z,34.59
2016-11-11T15:25:54.241Z,34.24
2016-11-11T15:27:07.897Z,34.49
2016-11-11T15:28:21.560Z,34.7
2016-11-11T15:29:35.226Z,34.77
2016-11-11T15:30:48.885Z,35.03
2016-11-11T15:32:33.693Z,35.29
2016-11-11T15:33:47.286Z,34.73
2016-11-11T15:35:00.406Z,34.13
2016-11-11T15:36:12.974Z,33.87
2016-11-11T15:37:26.543Z,33.81
2016-11-11T15:38:40.083Z,34.25
2016-11-11T15:39:53.174Z,34.35
2016-11-11T15:41:06.841Z,33.84
2016-11-11T15:42:20.546Z,33.53
2016-11-11T15:43:34.079Z,33.28
2016-11-11T15:44:47.693Z,32.67
2016-11-11T15:46:01.241Z,32.19
2016-11-11T15:47:14.946Z,32.06
2016-11-11T15:48:28.659Z,32.08
2016-11-11T15:49:41.713Z,32.74
2016-11-11T15:50:55.352Z,33.38
2016-11-11T15:52:09.052Z,33.87
2016-11-11T15:53:22.775Z,34.21
2016-11-11T15:54:36.667Z,34.58
2016-11-11T15:55:50.217Z,34.54
2016-11-11T15:57:03.520Z,34.94
2016-11-11T15:58:16.943Z,35.29
2016-11-11T15:59:29.963Z,35.75
2016-11-11T16:00:43.622Z,35.96